Cote Blanche Bay — WX9469 — position and weather

sailwx.info

Track history (hours):
 
Tides and Currents Weather Stations Pressure Air Temp Water Temp Dewpoint Dewpoint Depression Visibility Wind Speed Wind Dir Waves Ship Positions

Cote Blanche Bay

Owner: OMEGA PROTEIN INC., Moss Point, MS. More information available from US FCC via Universal Licensing System and Coast Guard Vessel Documentation Center.

Last reported at 2017-Oct-19 23:30 UTC. Time now 2017-Oct-19 23:41 UTC.
Position N 29°49' W 092°08'.

Length 49 m; draft 3.5 m.

Type: Fishing. MMSI: 367108850.

Date/timePositionNaut miles runAvg speedWind from/ knotsBaromVisibWave heightAir tempDewpointWater temp
2017-Oct-19 23:30N 29°49' W 092°08'0 0.0
2017-Oct-19 23:00N 29°49' W 092°08'0 0.0
2017-Oct-19 22:30N 29°49' W 092°08'0 0.0
2017-Oct-19 22:00N 29°49' W 092°08'0 0.0
2017-Oct-19 21:30N 29°49' W 092°08'0 0.0
2017-Oct-19 21:00N 29°49' W 092°08'0 0.0
2017-Oct-19 20:30N 29°49' W 092°08'0 0.1
2017-Oct-19 20:00N 29°49' W 092°08'0 0.0
2017-Oct-19 19:30N 29°49' W 092°08'0 0.0
2017-Oct-19 19:00N 29°49' W 092°08'0 0.0
2017-Oct-19 18:30N 29°49' W 092°08'1 2.8
2017-Oct-19 18:00N 29°48' W 092°08'4 7.2
2017-Oct-19 17:30N 29°46' W 092°12'6 8.8
2017-Oct-19 16:51N 29°41' W 092°15'3 8.5
2017-Oct-19 16:29N 29°38' W 092°16'3 0.1
2017-Oct-18 10:54N 29°41' W 092°15'410.0
2017-Oct-18 10:30N 29°44' W 092°14'5 9.4
2017-Oct-18 10:00N 29°47' W 092°09'3 5.3
2017-Oct-18 09:30N 29°49' W 092°08'0 0.2
2017-Oct-18 09:00N 29°49' W 092°08'0 0.0
2017-Oct-18 08:30N 29°49' W 092°08'0 0.0
2017-Oct-18 08:00N 29°49' W 092°08'0 0.0
2017-Oct-18 07:30N 29°49' W 092°08'0 0.0
2017-Oct-18 07:00N 29°49' W 092°08'0 0.0
2017-Oct-18 06:30N 29°49' W 092°08'0 0.0
2017-Oct-18 06:00N 29°49' W 092°08'0 0.0
2017-Oct-18 05:30N 29°49' W 092°08'0 0.0
2017-Oct-18 05:00N 29°49' W 092°08'0 0.0
2017-Oct-18 04:30N 29°49' W 092°08'0 0.0
2017-Oct-18 04:00N 29°49' W 092°08'0 0.0
2017-Oct-18 03:30N 29°49' W 092°08'0 0.0
2017-Oct-18 03:00N 29°49' W 092°08'0 0.0
2017-Oct-18 02:30N 29°49' W 092°08'0 0.0
2017-Oct-18 02:00N 29°49' W 092°08'0 0.0
2017-Oct-18 01:30N 29°49' W 092°08'0 0.0
2017-Oct-18 01:00N 29°49' W 092°08'0 0.0
2017-Oct-18 00:30N 29°49' W 092°08'0 0.0
2017-Oct-18 00:00N 29°49' W 092°08'0 0.0
2017-Oct-17 23:30N 29°49' W 092°08'0 0.0
2017-Oct-17 23:00N 29°49' W 092°08'0 0.0
2017-Oct-17 22:30N 29°49' W 092°08'0 0.0
2017-Oct-17 22:00N 29°49' W 092°08'0 0.0
2017-Oct-17 21:30N 29°49' W 092°08'0 0.0
2017-Oct-17 21:00N 29°49' W 092°08'0 0.0
2017-Oct-17 20:30N 29°49' W 092°08'0 0.0
2017-Oct-17 20:00N 29°49' W 092°08'0 0.0
2017-Oct-17 19:30N 29°49' W 092°08'0 0.0
2017-Oct-17 19:00N 29°49' W 092°08'0 0.0
2017-Oct-17 18:30N 29°49' W 092°08'0 0.0
2017-Oct-17 18:00N 29°49' W 092°08'0 0.0
2017-Oct-17 17:30N 29°49' W 092°08'0 0.0
2017-Oct-17 17:00N 29°49' W 092°08'0 0.0
2017-Oct-17 16:30N 29°49' W 092°08'0 0.0
2017-Oct-17 16:00N 29°49' W 092°08'0 0.0
2017-Oct-17 15:30N 29°49' W 092°08'0 0.0
2017-Oct-17 15:00N 29°49' W 092°08'0 0.0
2017-Oct-17 14:30N 29°49' W 092°08'0 0.0
2017-Oct-17 14:00N 29°49' W 092°08'0 0.0
2017-Oct-17 13:30N 29°49' W 092°08'0 0.0
2017-Oct-17 13:00N 29°49' W 092°08'0 0.0
2017-Oct-17 12:30N 29°49' W 092°08'0 0.0
2017-Oct-17 12:00N 29°49' W 092°08'0 0.0
2017-Oct-17 11:30N 29°49' W 092°08'0 0.0
2017-Oct-17 11:00N 29°49' W 092°08'0 0.0
2017-Oct-17 10:30N 29°49' W 092°08'0 0.0
2017-Oct-17 10:00N 29°49' W 092°08'0 0.0
2017-Oct-17 09:30N 29°49' W 092°08'0 0.0
2017-Oct-17 09:00N 29°49' W 092°08'0 0.0
2017-Oct-17 08:30N 29°49' W 092°08'0 0.0
2017-Oct-17 08:00N 29°49' W 092°08'0 0.0
2017-Oct-17 07:30N 29°49' W 092°08'0 0.0
2017-Oct-17 07:00N 29°49' W 092°08'0 0.0
2017-Oct-17 06:30N 29°49' W 092°08'0 0.0
2017-Oct-17 06:00N 29°49' W 092°08'0 0.0
2017-Oct-17 05:30N 29°49' W 092°08'0 0.0
2017-Oct-17 05:00N 29°49' W 092°08'0 0.0
2017-Oct-17 04:30N 29°49' W 092°08'0 0.0
2017-Oct-17 04:00N 29°49' W 092°08'0 0.0
2017-Oct-17 03:30N 29°49' W 092°08'0 0.0
2017-Oct-17 03:00N 29°49' W 092°08'0 0.0
2017-Oct-17 02:30N 29°49' W 092°08'0 0.0
2017-Oct-17 02:00N 29°49' W 092°08'0 0.0
2017-Oct-17 01:30N 29°49' W 092°08'0 0.0
2017-Oct-17 01:00N 29°49' W 092°08'0 0.0
2017-Oct-17 00:30N 29°49' W 092°08'0 0.0
2017-Oct-17 00:00N 29°49' W 092°08'0 0.0
2017-Oct-16 23:30N 29°49' W 092°08'0 0.0
2017-Oct-16 23:00N 29°49' W 092°08'0 0.0
2017-Oct-16 22:30N 29°49' W 092°08'0 0.0
2017-Oct-16 22:00N 29°49' W 092°08'0 0.0
2017-Oct-16 21:30N 29°49' W 092°08'0 0.0
2017-Oct-16 21:00N 29°49' W 092°08'0 0.0
2017-Oct-16 20:30N 29°49' W 092°08'0 0.0
2017-Oct-16 20:00N 29°49' W 092°08'0 0.3
2017-Oct-16 19:30N 29°49' W 092°08'3 5.7
2017-Oct-16 19:00N 29°47' W 092°10'5 9.2
2017-Oct-16 18:30N 29°44' W 092°14'5 9.2
2017-Oct-16 18:00N 29°40' W 092°15'1 0.1
2017-Oct-16 03:40N 29°41' W 092°15'1 8.6
2017-Oct-16 03:30N 29°42' W 092°15'4 8.7
2017-Oct-16 03:00N 29°45' W 092°12'4 7.5
2017-Oct-16 02:30N 29°48' W 092°08'2 1.2
2017-Oct-16 01:02N 29°49' W 092°08'0 0.0
2017-Oct-16 00:56N 29°49' W 092°08'0 0.0
2017-Oct-16 00:30N 29°49' W 092°08'0 0.0
2017-Oct-15 23:57N 29°49' W 092°08'0 0.0
2017-Oct-15 23:28N 29°49' W 092°08'0 0.0
2017-Oct-15 23:00N 29°49' W 092°08'0 0.0
2017-Oct-15 22:30N 29°49' W 092°08'0 0.0
2017-Oct-15 21:59N 29°49' W 092°08'0 0.0
2017-Oct-15 21:27N 29°49' W 092°08'0 0.0
2017-Oct-15 20:59N 29°49' W 092°08'0 0.0
2017-Oct-15 20:30N 29°49' W 092°08'0 0.0
2017-Oct-15 19:41N 29°49' W 092°08'0 0.0
2017-Oct-15 19:22N 29°49' W 092°08'0 0.0
2017-Oct-15 18:57N 29°49' W 092°08'0 0.0
2017-Oct-15 18:30N 29°49' W 092°08'0 0.0
2017-Oct-15 18:00N 29°49' W 092°08'0 0.0
2017-Oct-15 17:30N 29°49' W 092°08'0 0.0
2017-Oct-15 17:00N 29°49' W 092°08'0 0.0
2017-Oct-15 16:30N 29°49' W 092°08'0 0.0
2017-Oct-15 16:00N 29°49' W 092°08'0 0.0
2017-Oct-15 15:30N 29°49' W 092°08'0 0.0
2017-Oct-15 15:00N 29°49' W 092°08'0 0.0
2017-Oct-15 14:00N 29°49' W 092°08'0 0.0
2017-Oct-15 13:30N 29°49' W 092°08'0 0.0
2017-Oct-15 13:00N 29°49' W 092°08'0 0.0
2017-Oct-15 12:30N 29°49' W 092°08'0 0.0
2017-Oct-15 12:00N 29°49' W 092°08'0 0.0
2017-Oct-15 11:30N 29°49' W 092°08'0 0.0
2017-Oct-15 11:00N 29°49' W 092°08'0 0.0
2017-Oct-15 10:30N 29°49' W 092°08'0 0.0
2017-Oct-15 10:00N 29°49' W 092°08'0 0.0
2017-Oct-15 09:30N 29°49' W 092°08'0 0.0
2017-Oct-15 09:00N 29°49' W 092°08'0 0.0
2017-Oct-15 08:30N 29°49' W 092°08'0 0.0
2017-Oct-15 08:00N 29°49' W 092°08'0 0.0
2017-Oct-15 07:30N 29°49' W 092°08'0 0.0
2017-Oct-15 07:00N 29°49' W 092°08'0 0.0
2017-Oct-15 06:30N 29°49' W 092°08'0 0.0
2017-Oct-15 06:00N 29°49' W 092°08'0 0.0
2017-Oct-15 05:30N 29°49' W 092°08'0 0.0
2017-Oct-15 05:00N 29°49' W 092°08'0 0.0
2017-Oct-15 04:30N 29°49' W 092°08'0 0.0
2017-Oct-15 04:00N 29°49' W 092°08'0 0.0
2017-Oct-15 03:30N 29°49' W 092°08'0 0.0
2017-Oct-15 03:00N 29°49' W 092°08'0 0.0
2017-Oct-15 02:30N 29°49' W 092°08'0 0.0
2017-Oct-15 02:00N 29°49' W 092°08'0 0.0
2017-Oct-15 01:30N 29°49' W 092°08'0 0.0
2017-Oct-15 01:00N 29°49' W 092°08'0 0.0
2017-Oct-15 00:30N 29°49' W 092°08'0 0.0
2017-Oct-15 00:00N 29°49' W 092°08'0 0.0
2017-Oct-14 23:30N 29°49' W 092°08'0 0.0
2017-Oct-14 23:00N 29°49' W 092°08'0 0.0
2017-Oct-14 22:30N 29°49' W 092°08'0 0.0
2017-Oct-14 22:00N 29°49' W 092°08'0 0.0
2017-Oct-14 21:30N 29°49' W 092°08'0 0.0
2017-Oct-14 21:00N 29°49' W 092°08'0 0.0
2017-Oct-14 20:30N 29°49' W 092°08'0 0.0
2017-Oct-14 20:00N 29°49' W 092°08'0 0.0
2017-Oct-14 19:30N 29°49' W 092°08'0 0.0
2017-Oct-14 19:00N 29°49' W 092°08'0 0.0
2017-Oct-14 18:30N 29°49' W 092°08'0 0.0
2017-Oct-14 18:00N 29°49' W 092°08'0 0.0
2017-Oct-14 17:30N 29°49' W 092°08'0 0.0
2017-Oct-14 17:00N 29°49' W 092°08'0 0.0
2017-Oct-14 16:16N 29°49' W 092°08'0 0.0
2017-Oct-14 16:00N 29°49' W 092°08'0 0.0
2017-Oct-14 15:30N 29°49' W 092°08'0 0.0
2017-Oct-14 15:00N 29°49' W 092°08'0 0.0
2017-Oct-14 14:30N 29°49' W 092°08'0 0.0
2017-Oct-14 14:00N 29°49' W 092°08'0 0.0
2017-Oct-14 13:30N 29°49' W 092°08'0 0.0
2017-Oct-14 13:00N 29°49' W 092°08'0 0.0
2017-Oct-14 12:30N 29°49' W 092°08'0 0.0
2017-Oct-14 12:00N 29°49' W 092°08'0 0.0
2017-Oct-14 11:30N 29°49' W 092°08'0 0.0
2017-Oct-14 11:00N 29°49' W 092°08'0 0.1
2017-Oct-14 10:30N 29°49' W 092°08'0 0.0
2017-Oct-14 10:00N 29°49' W 092°08'0 0.0
2017-Oct-14 09:30N 29°49' W 092°08'0 0.0
2017-Oct-14 09:00N 29°49' W 092°08'0 0.0
2017-Oct-14 08:30N 29°49' W 092°08'0 0.0
2017-Oct-14 08:00N 29°49' W 092°08'0 0.0
2017-Oct-14 07:30N 29°49' W 092°08'0 0.0
2017-Oct-14 07:00N 29°49' W 092°08'0 0.0
2017-Oct-14 06:30N 29°49' W 092°08'0 0.0
2017-Oct-14 06:00N 29°49' W 092°08'0 0.0
2017-Oct-14 05:07N 29°49' W 092°08'0 0.1
2017-Oct-14 05:00N 29°49' W 092°08'0 0.0
2017-Oct-14 04:30N 29°49' W 092°08'0 0.0
2017-Oct-14 04:00N 29°49' W 092°08'0 0.0
2017-Oct-14 03:30N 29°49' W 092°08'0 0.0
2017-Oct-14 03:00N 29°49' W 092°08'0 0.0
2017-Oct-14 02:10N 29°49' W 092°08'0 0.0
2017-Oct-14 02:00N 29°49' W 092°08'0 0.0
2017-Oct-14 01:30N 29°49' W 092°08'0 0.0
2017-Oct-14 01:00N 29°49' W 092°08'0 0.0
2017-Oct-14 00:30N 29°49' W 092°08'0 0.0
2017-Oct-14 00:00N 29°49' W 092°08'0 0.0
2017-Oct-13 23:30N 29°49' W 092°08'0 0.0
2017-Oct-13 23:00N 29°49' W 092°08'0 0.0
2017-Oct-13 22:30N 29°49' W 092°08'0 0.0
2017-Oct-13 22:00N 29°49' W 092°08'0 0.0
2017-Oct-13 21:30N 29°49' W 092°08'1 1.9
2017-Oct-13 21:00N 29°48' W 092°08'3 6.1
2017-Oct-13 20:30N 29°46' W 092°11'5 9.4
2017-Oct-13 20:00N 29°43' W 092°15'5 9.0
2017-Oct-13 19:29N 29°38' W 092°16'1 0.1
2017-Oct-13 09:55N 29°38' W 092°16'410.5
2017-Oct-13 09:30N 29°42' W 092°15'510.5
2017-Oct-13 09:00N 29°46' W 092°11'3 6.4
2017-Oct-13 08:30N 29°48' W 092°08'1 2.5
2017-Oct-13 08:00N 29°49' W 092°08'0 0.0
2017-Oct-13 07:30N 29°49' W 092°08'0 0.0
2017-Oct-13 07:00N 29°49' W 092°08'0 0.0
2017-Oct-13 06:30N 29°49' W 092°08'0 0.0
2017-Oct-13 06:00N 29°49' W 092°08'0 0.0
2017-Oct-13 05:30N 29°49' W 092°08'0 0.0
2017-Oct-13 05:00N 29°49' W 092°08'0 0.0
2017-Oct-13 04:30N 29°49' W 092°08'0 0.0
2017-Oct-13 04:00N 29°49' W 092°08'0 0.0
2017-Oct-13 03:30N 29°49' W 092°08'1 1.9
2017-Oct-13 03:00N 29°48' W 092°08'2 4.8
2017-Oct-13 02:30N 29°47' W 092°10'4 8.0
2017-Oct-13 02:00N 29°44' W 092°14'4 8.4
2017-Oct-13 01:29N 29°40' W 092°15'  
2017-Oct-10 00:59N 29°40' W 092°15'4 7.3
2017-Oct-10 00:30N 29°44' W 092°14'5 9.1
2017-Oct-10 00:00N 29°47' W 092°10'  
Track history (hours):
 
Tides and Currents Weather Stations Pressure Air Temp Water Temp Dewpoint Dewpoint Depression Visibility Wind Speed Wind Dir Waves Ship Positions

Cote Blanche Bay

Owner: OMEGA PROTEIN INC., Moss Point, MS. More information available from US FCC via Universal Licensing System and Coast Guard Vessel Documentation Center.

Last reported at 2017-Oct-19 23:30 UTC. Time now 2017-Oct-19 23:41 UTC.
Position N 29°49' W 092°08'.

Length 49 m; draft 3.5 m.

Type: Fishing. MMSI: 367108850.

Date/timePositionNaut miles runAvg speedWind from/ knotsBaromVisibWave heightAir tempDewpointWater temp
2017-Oct-19 23:30N 29°49' W 092°08'0 0.0
2017-Oct-19 23:00N 29°49' W 092°08'0 0.0
2017-Oct-19 22:30N 29°49' W 092°08'0 0.0
2017-Oct-19 22:00N 29°49' W 092°08'0 0.0
2017-Oct-19 21:30N 29°49' W 092°08'0 0.0
2017-Oct-19 21:00N 29°49' W 092°08'0 0.0
2017-Oct-19 20:30N 29°49' W 092°08'0 0.1
2017-Oct-19 20:00N 29°49' W 092°08'0 0.0
2017-Oct-19 19:30N 29°49' W 092°08'0 0.0
2017-Oct-19 19:00N 29°49' W 092°08'0 0.0
2017-Oct-19 18:30N 29°49' W 092°08'1 2.8
2017-Oct-19 18:00N 29°48' W 092°08'4 7.2
2017-Oct-19 17:30N 29°46' W 092°12'6 8.8
2017-Oct-19 16:51N 29°41' W 092°15'3 8.5
2017-Oct-19 16:29N 29°38' W 092°16'3 0.1
2017-Oct-18 10:54N 29°41' W 092°15'410.0
2017-Oct-18 10:30N 29°44' W 092°14'5 9.4
2017-Oct-18 10:00N 29°47' W 092°09'3 5.3
2017-Oct-18 09:30N 29°49' W 092°08'0 0.2
2017-Oct-18 09:00N 29°49' W 092°08'0 0.0
2017-Oct-18 08:30N 29°49' W 092°08'0 0.0
2017-Oct-18 08:00N 29°49' W 092°08'0 0.0
2017-Oct-18 07:30N 29°49' W 092°08'0 0.0
2017-Oct-18 07:00N 29°49' W 092°08'0 0.0
2017-Oct-18 06:30N 29°49' W 092°08'0 0.0
2017-Oct-18 06:00N 29°49' W 092°08'0 0.0
2017-Oct-18 05:30N 29°49' W 092°08'0 0.0
2017-Oct-18 05:00N 29°49' W 092°08'0 0.0
2017-Oct-18 04:30N 29°49' W 092°08'0 0.0
2017-Oct-18 04:00N 29°49' W 092°08'0 0.0
2017-Oct-18 03:30N 29°49' W 092°08'0 0.0
2017-Oct-18 03:00N 29°49' W 092°08'0 0.0
2017-Oct-18 02:30N 29°49' W 092°08'0 0.0
2017-Oct-18 02:00N 29°49' W 092°08'0 0.0
2017-Oct-18 01:30N 29°49' W 092°08'0 0.0
2017-Oct-18 01:00N 29°49' W 092°08'0 0.0
2017-Oct-18 00:30N 29°49' W 092°08'0 0.0
2017-Oct-18 00:00N 29°49' W 092°08'0 0.0
2017-Oct-17 23:30N 29°49' W 092°08'0 0.0
2017-Oct-17 23:00N 29°49' W 092°08'0 0.0
2017-Oct-17 22:30N 29°49' W 092°08'0 0.0
2017-Oct-17 22:00N 29°49' W 092°08'0 0.0
2017-Oct-17 21:30N 29°49' W 092°08'0 0.0
2017-Oct-17 21:00N 29°49' W 092°08'0 0.0
2017-Oct-17 20:30N 29°49' W 092°08'0 0.0
2017-Oct-17 20:00N 29°49' W 092°08'0 0.0
2017-Oct-17 19:30N 29°49' W 092°08'0 0.0
2017-Oct-17 19:00N 29°49' W 092°08'0 0.0
2017-Oct-17 18:30N 29°49' W 092°08'0 0.0
2017-Oct-17 18:00N 29°49' W 092°08'0 0.0
2017-Oct-17 17:30N 29°49' W 092°08'0 0.0
2017-Oct-17 17:00N 29°49' W 092°08'0 0.0
2017-Oct-17 16:30N 29°49' W 092°08'0 0.0
2017-Oct-17 16:00N 29°49' W 092°08'0 0.0
2017-Oct-17 15:30N 29°49' W 092°08'0 0.0
2017-Oct-17 15:00N 29°49' W 092°08'0 0.0
2017-Oct-17 14:30N 29°49' W 092°08'0 0.0
2017-Oct-17 14:00N 29°49' W 092°08'0 0.0
2017-Oct-17 13:30N 29°49' W 092°08'0 0.0
2017-Oct-17 13:00N 29°49' W 092°08'0 0.0
2017-Oct-17 12:30N 29°49' W 092°08'0 0.0
2017-Oct-17 12:00N 29°49' W 092°08'0 0.0
2017-Oct-17 11:30N 29°49' W 092°08'0 0.0
2017-Oct-17 11:00N 29°49' W 092°08'0 0.0
2017-Oct-17 10:30N 29°49' W 092°08'0 0.0
2017-Oct-17 10:00N 29°49' W 092°08'0 0.0
2017-Oct-17 09:30N 29°49' W 092°08'0 0.0
2017-Oct-17 09:00N 29°49' W 092°08'0 0.0
2017-Oct-17 08:30N 29°49' W 092°08'0 0.0
2017-Oct-17 08:00N 29°49' W 092°08'0 0.0
2017-Oct-17 07:30N 29°49' W 092°08'0 0.0
2017-Oct-17 07:00N 29°49' W 092°08'0 0.0
2017-Oct-17 06:30N 29°49' W 092°08'0 0.0
2017-Oct-17 06:00N 29°49' W 092°08'0 0.0
2017-Oct-17 05:30N 29°49' W 092°08'0 0.0
2017-Oct-17 05:00N 29°49' W 092°08'0 0.0
2017-Oct-17 04:30N 29°49' W 092°08'0 0.0
2017-Oct-17 04:00N 29°49' W 092°08'0 0.0
2017-Oct-17 03:30N 29°49' W 092°08'0 0.0
2017-Oct-17 03:00N 29°49' W 092°08'0 0.0
2017-Oct-17 02:30N 29°49' W 092°08'0 0.0
2017-Oct-17 02:00N 29°49' W 092°08'0 0.0
2017-Oct-17 01:30N 29°49' W 092°08'0 0.0
2017-Oct-17 01:00N 29°49' W 092°08'0 0.0
2017-Oct-17 00:30N 29°49' W 092°08'0 0.0
2017-Oct-17 00:00N 29°49' W 092°08'0 0.0
2017-Oct-16 23:30N 29°49' W 092°08'0 0.0
2017-Oct-16 23:00N 29°49' W 092°08'0 0.0
2017-Oct-16 22:30N 29°49' W 092°08'0 0.0
2017-Oct-16 22:00N 29°49' W 092°08'0 0.0
2017-Oct-16 21:30N 29°49' W 092°08'0 0.0
2017-Oct-16 21:00N 29°49' W 092°08'0 0.0
2017-Oct-16 20:30N 29°49' W 092°08'0 0.0
2017-Oct-16 20:00N 29°49' W 092°08'0 0.3
2017-Oct-16 19:30N 29°49' W 092°08'3 5.7
2017-Oct-16 19:00N 29°47' W 092°10'5 9.2
2017-Oct-16 18:30N 29°44' W 092°14'5 9.2
2017-Oct-16 18:00N 29°40' W 092°15'1 0.1
2017-Oct-16 03:40N 29°41' W 092°15'1 8.6
2017-Oct-16 03:30N 29°42' W 092°15'4 8.7
2017-Oct-16 03:00N 29°45' W 092°12'4 7.5
2017-Oct-16 02:30N 29°48' W 092°08'2 1.2
2017-Oct-16 01:02N 29°49' W 092°08'0 0.0
2017-Oct-16 00:56N 29°49' W 092°08'0 0.0
2017-Oct-16 00:30N 29°49' W 092°08'0 0.0
2017-Oct-15 23:57N 29°49' W 092°08'0 0.0
2017-Oct-15 23:28N 29°49' W 092°08'0 0.0
2017-Oct-15 23:00N 29°49' W 092°08'0 0.0
2017-Oct-15 22:30N 29°49' W 092°08'0 0.0
2017-Oct-15 21:59N 29°49' W 092°08'0 0.0
2017-Oct-15 21:27N 29°49' W 092°08'0 0.0
2017-Oct-15 20:59N 29°49' W 092°08'0 0.0
2017-Oct-15 20:30N 29°49' W 092°08'0 0.0
2017-Oct-15 19:41N 29°49' W 092°08'0 0.0
2017-Oct-15 19:22N 29°49' W 092°08'0 0.0
2017-Oct-15 18:57N 29°49' W 092°08'0 0.0
2017-Oct-15 18:30N 29°49' W 092°08'0 0.0
2017-Oct-15 18:00N 29°49' W 092°08'0 0.0
2017-Oct-15 17:30N 29°49' W 092°08'0 0.0
2017-Oct-15 17:00N 29°49' W 092°08'0 0.0
2017-Oct-15 16:30N 29°49' W 092°08'0 0.0
2017-Oct-15 16:00N 29°49' W 092°08'0 0.0
2017-Oct-15 15:30N 29°49' W 092°08'0 0.0
2017-Oct-15 15:00N 29°49' W 092°08'0 0.0
2017-Oct-15 14:00N 29°49' W 092°08'0 0.0
2017-Oct-15 13:30N 29°49' W 092°08'0 0.0
2017-Oct-15 13:00N 29°49' W 092°08'0 0.0
2017-Oct-15 12:30N 29°49' W 092°08'0 0.0
2017-Oct-15 12:00N 29°49' W 092°08'0 0.0
2017-Oct-15 11:30N 29°49' W 092°08'0 0.0
2017-Oct-15 11:00N 29°49' W 092°08'0 0.0
2017-Oct-15 10:30N 29°49' W 092°08'0 0.0
2017-Oct-15 10:00N 29°49' W 092°08'0 0.0
2017-Oct-15 09:30N 29°49' W 092°08'0 0.0
2017-Oct-15 09:00N 29°49' W 092°08'0 0.0
2017-Oct-15 08:30N 29°49' W 092°08'0 0.0
2017-Oct-15 08:00N 29°49' W 092°08'0 0.0
2017-Oct-15 07:30N 29°49' W 092°08'0 0.0
2017-Oct-15 07:00N 29°49' W 092°08'0 0.0
2017-Oct-15 06:30N 29°49' W 092°08'0 0.0
2017-Oct-15 06:00N 29°49' W 092°08'0 0.0
2017-Oct-15 05:30N 29°49' W 092°08'0 0.0
2017-Oct-15 05:00N 29°49' W 092°08'0 0.0
2017-Oct-15 04:30N 29°49' W 092°08'0 0.0
2017-Oct-15 04:00N 29°49' W 092°08'0 0.0
2017-Oct-15 03:30N 29°49' W 092°08'0 0.0
2017-Oct-15 03:00N 29°49' W 092°08'0 0.0
2017-Oct-15 02:30N 29°49' W 092°08'0 0.0
2017-Oct-15 02:00N 29°49' W 092°08'0 0.0
2017-Oct-15 01:30N 29°49' W 092°08'0 0.0
2017-Oct-15 01:00N 29°49' W 092°08'0 0.0
2017-Oct-15 00:30N 29°49' W 092°08'0 0.0
2017-Oct-15 00:00N 29°49' W 092°08'0 0.0
2017-Oct-14 23:30N 29°49' W 092°08'0 0.0
2017-Oct-14 23:00N 29°49' W 092°08'0 0.0
2017-Oct-14 22:30N 29°49' W 092°08'0 0.0
2017-Oct-14 22:00N 29°49' W 092°08'0 0.0
2017-Oct-14 21:30N 29°49' W 092°08'0 0.0
2017-Oct-14 21:00N 29°49' W 092°08'0 0.0
2017-Oct-14 20:30N 29°49' W 092°08'0 0.0
2017-Oct-14 20:00N 29°49' W 092°08'0 0.0
2017-Oct-14 19:30N 29°49' W 092°08'0 0.0
2017-Oct-14 19:00N 29°49' W 092°08'0 0.0
2017-Oct-14 18:30N 29°49' W 092°08'0 0.0
2017-Oct-14 18:00N 29°49' W 092°08'0 0.0
2017-Oct-14 17:30N 29°49' W 092°08'0 0.0
2017-Oct-14 17:00N 29°49' W 092°08'0 0.0
2017-Oct-14 16:16N 29°49' W 092°08'0 0.0
2017-Oct-14 16:00N 29°49' W 092°08'0 0.0
2017-Oct-14 15:30N 29°49' W 092°08'0 0.0
2017-Oct-14 15:00N 29°49' W 092°08'0 0.0
2017-Oct-14 14:30N 29°49' W 092°08'0 0.0
2017-Oct-14 14:00N 29°49' W 092°08'0 0.0
2017-Oct-14 13:30N 29°49' W 092°08'0 0.0
2017-Oct-14 13:00N 29°49' W 092°08'0 0.0
2017-Oct-14 12:30N 29°49' W 092°08'0 0.0
2017-Oct-14 12:00N 29°49' W 092°08'0 0.0
2017-Oct-14 11:30N 29°49' W 092°08'0 0.0
2017-Oct-14 11:00N 29°49' W 092°08'0 0.1
2017-Oct-14 10:30N 29°49' W 092°08'0 0.0
2017-Oct-14 10:00N 29°49' W 092°08'0 0.0
2017-Oct-14 09:30N 29°49' W 092°08'0 0.0
2017-Oct-14 09:00N 29°49' W 092°08'0 0.0
2017-Oct-14 08:30N 29°49' W 092°08'0 0.0
2017-Oct-14 08:00N 29°49' W 092°08'0 0.0
2017-Oct-14 07:30N 29°49' W 092°08'0 0.0
2017-Oct-14 07:00N 29°49' W 092°08'0 0.0
2017-Oct-14 06:30N 29°49' W 092°08'0 0.0
2017-Oct-14 06:00N 29°49' W 092°08'0 0.0
2017-Oct-14 05:07N 29°49' W 092°08'0 0.1
2017-Oct-14 05:00N 29°49' W 092°08'0 0.0
2017-Oct-14 04:30N 29°49' W 092°08'0 0.0
2017-Oct-14 04:00N 29°49' W 092°08'0 0.0
2017-Oct-14 03:30N 29°49' W 092°08'0 0.0
2017-Oct-14 03:00N 29°49' W 092°08'0 0.0
2017-Oct-14 02:10N 29°49' W 092°08'0 0.0
2017-Oct-14 02:00N 29°49' W 092°08'0 0.0
2017-Oct-14 01:30N 29°49' W 092°08'0 0.0
2017-Oct-14 01:00N 29°49' W 092°08'0 0.0
2017-Oct-14 00:30N 29°49' W 092°08'0 0.0
2017-Oct-14 00:00N 29°49' W 092°08'0 0.0
2017-Oct-13 23:30N 29°49' W 092°08'0 0.0
2017-Oct-13 23:00N 29°49' W 092°08'0 0.0
2017-Oct-13 22:30N 29°49' W 092°08'0 0.0
2017-Oct-13 22:00N 29°49' W 092°08'0 0.0
2017-Oct-13 21:30N 29°49' W 092°08'1 1.9
2017-Oct-13 21:00N 29°48' W 092°08'3 6.1
2017-Oct-13 20:30N 29°46' W 092°11'5 9.4
2017-Oct-13 20:00N 29°43' W 092°15'5 9.0
2017-Oct-13 19:29N 29°38' W 092°16'1 0.1
2017-Oct-13 09:55N 29°38' W 092°16'410.5
2017-Oct-13 09:30N 29°42' W 092°15'510.5
2017-Oct-13 09:00N 29°46' W 092°11'3 6.4
2017-Oct-13 08:30N 29°48' W 092°08'1 2.5
2017-Oct-13 08:00N 29°49' W 092°08'0 0.0
2017-Oct-13 07:30N 29°49' W 092°08'0 0.0
2017-Oct-13 07:00N 29°49' W 092°08'0 0.0
2017-Oct-13 06:30N 29°49' W 092°08'0 0.0
2017-Oct-13 06:00N 29°49' W 092°08'0 0.0
2017-Oct-13 05:30N 29°49' W 092°08'0 0.0
2017-Oct-13 05:00N 29°49' W 092°08'0 0.0
2017-Oct-13 04:30N 29°49' W 092°08'0 0.0
2017-Oct-13 04:00N 29°49' W 092°08'0 0.0
2017-Oct-13 03:30N 29°49' W 092°08'1 1.9
2017-Oct-13 03:00N 29°48' W 092°08'2 4.8
2017-Oct-13 02:30N 29°47' W 092°10'4 8.0
2017-Oct-13 02:00N 29°44' W 092°14'4 8.4
2017-Oct-13 01:29N 29°40' W 092°15'  
2017-Oct-10 00:59N 29°40' W 092°15'4 7.3
2017-Oct-10 00:30N 29°44' W 092°14'5 9.1
2017-Oct-10 00:00N 29°47' W 092°10'  

Dump ship's entire track history